createdAt,value
2018-04-28T00:00:47.604Z,18.13
2018-04-28T00:01:47.760Z,18.14
2018-04-28T00:02:47.764Z,18.17
2018-04-28T00:03:47.691Z,18.15
2018-04-28T00:04:47.611Z,18.13
2018-04-28T00:05:47.716Z,18.18
2018-04-28T00:06:47.714Z,18.14
2018-04-28T00:07:47.525Z,18.12
2018-04-28T00:08:47.714Z,18.17
2018-04-28T00:09:47.794Z,18.13
2018-04-28T00:10:47.627Z,18.14
2018-04-28T00:11:47.520Z,18.12
2018-04-28T00:12:47.592Z,18.12
2018-04-28T00:13:47.699Z,18.13
2018-04-28T00:14:47.703Z,18.13
2018-04-28T00:15:47.762Z,18.12
2018-04-28T00:16:47.522Z,18.11
2018-04-28T00:17:47.674Z,18.13
2018-04-28T00:18:47.634Z,18.12
2018-04-28T00:19:47.661Z,18.11
2018-04-28T00:20:47.575Z,18.12
2018-04-28T00:21:47.590Z,18.13
2018-04-28T00:22:47.613Z,18.13
2018-04-28T00:23:47.675Z,18.13
2018-04-28T00:24:47.786Z,18.12
2018-04-28T00:25:47.669Z,18.12
2018-04-28T00:26:47.520Z,18.12
2018-04-28T00:27:47.578Z,18.09
2018-04-28T00:28:47.561Z,18.12
2018-04-28T00:29:47.636Z,18.12
2018-04-28T00:30:47.717Z,18.11
2018-04-28T00:31:47.633Z,18.11
2018-04-28T00:32:47.745Z,18.1
2018-04-28T00:33:47.734Z,18.12
2018-04-28T00:34:50.679Z,18.11
2018-04-28T00:35:47.525Z,18.12
2018-04-28T00:36:47.579Z,18.12
2018-04-28T00:37:47.627Z,18.11
2018-04-28T00:38:47.689Z,18.12
2018-04-28T00:39:47.551Z,18.12
2018-04-28T00:40:47.841Z,18.09
2018-04-28T00:41:47.713Z,18.12
2018-04-28T00:42:47.577Z,18.11
2018-04-28T00:43:47.700Z,18.11
2018-04-28T00:44:47.568Z,18.11
2018-04-28T00:45:47.398Z,18.11
2018-04-28T00:46:47.635Z,18.11
2018-04-28T00:47:47.651Z,18.11
2018-04-28T00:48:47.551Z,18.1
2018-04-28T00:49:47.531Z,18.09
2018-04-28T00:50:47.510Z,18.12
2018-04-28T00:51:47.593Z,18.12
2018-04-28T00:52:47.740Z,18.1
2018-04-28T00:53:47.710Z,18.12
2018-04-28T00:54:47.634Z,18.11
2018-04-28T00:55:47.754Z,18.08
2018-04-28T00:56:47.700Z,18.09
2018-04-28T00:57:47.641Z,18.09
2018-04-28T00:58:47.703Z,18.09
2018-04-28T00:59:47.558Z,18.11
2018-04-28T01:00:47.628Z,18.1
2018-04-28T01:01:47.716Z,18.08
2018-04-28T01:02:47.671Z,18.12
2018-04-28T01:03:47.749Z,18.09
2018-04-28T01:04:47.868Z,18.09
2018-04-28T01:05:47.806Z,18.09
2018-04-28T01:06:47.654Z,18.09
2018-04-28T01:07:47.551Z,18.1
2018-04-28T01:08:47.969Z,18.08
2018-04-28T01:09:47.396Z,18.09
2018-04-28T01:10:47.917Z,18.08
2018-04-28T01:11:47.843Z,18.08
2018-04-28T01:12:47.676Z,18.1
2018-04-28T01:13:47.937Z,18.09
2018-04-28T01:14:47.594Z,18.12
2018-04-28T01:15:47.609Z,18.08
2018-04-28T01:16:47.886Z,18.08
2018-04-28T01:17:47.936Z,18.09
2018-04-28T01:18:47.669Z,18.09
2018-04-28T01:19:47.701Z,18.06
2018-04-28T01:20:47.972Z,18.1
2018-04-28T01:21:47.833Z,18.08
2018-04-28T01:22:47.751Z,18.07
2018-04-28T01:23:47.463Z,18.09
2018-04-28T01:24:47.590Z,18.09
2018-04-28T01:25:47.608Z,18.07
2018-04-28T01:26:47.671Z,18.08
2018-04-28T01:27:47.551Z,18.08
2018-04-28T01:28:47.635Z,18.08
2018-04-28T01:29:47.739Z,18.1
2018-04-28T01:30:47.929Z,18.07
2018-04-28T01:31:47.557Z,18.07
2018-04-28T01:32:47.783Z,18.08
2018-04-28T01:33:47.729Z,18.08
2018-04-28T01:34:47.635Z,18.07
2018-04-28T01:35:47.734Z,18.09
2018-04-28T01:36:47.518Z,18.06
2018-04-28T01:37:47.633Z,18.05
2018-04-28T01:38:47.532Z,18.09
2018-04-28T01:39:47.580Z,18.07
2018-04-28T01:40:47.555Z,18.08
2018-04-28T01:41:47.527Z,18.07
2018-04-28T01:42:47.785Z,18.06
2018-04-28T01:43:47.764Z,18.08
2018-04-28T01:44:47.594Z,18.09
2018-04-28T01:45:47.759Z,18.06
2018-04-28T01:46:47.797Z,18.05
2018-04-28T01:47:47.682Z,18.08
2018-04-28T01:48:47.855Z,18.08
2018-04-28T01:49:47.827Z,18.06
2018-04-28T01:50:47.914Z,18.06
2018-04-28T01:51:47.852Z,18.06
2018-04-28T01:52:47.747Z,18.06
2018-04-28T01:53:47.735Z,18.07
2018-04-28T01:54:47.748Z,18.06
2018-04-28T01:55:47.889Z,18.05
2018-04-28T01:56:47.906Z,18.09
2018-04-28T01:57:47.854Z,18.05
2018-04-28T01:58:47.815Z,18.04
2018-04-28T01:59:47.895Z,18.05
2018-04-28T02:00:47.936Z,18.05
2018-04-28T02:01:47.578Z,18.04
2018-04-28T02:02:47.730Z,18.07
2018-04-28T02:03:47.795Z,18.06
2018-04-28T02:04:47.695Z,18.04
2018-04-28T02:05:47.893Z,18.07
2018-04-28T02:06:47.606Z,18.06
2018-04-28T02:07:47.824Z,18.04
2018-04-28T02:08:47.741Z,18.08
2018-04-28T02:09:47.966Z,18.06
2018-04-28T02:10:48.782Z,18.05
2018-04-28T02:11:47.989Z,18.05
2018-04-28T02:12:47.839Z,18.05
2018-04-28T02:13:47.815Z,18.04
2018-04-28T02:14:48.465Z,18.06
2018-04-28T02:15:47.573Z,18.05
2018-04-28T02:16:47.798Z,18.04
2018-04-28T02:17:47.813Z,18.05
2018-04-28T02:18:47.855Z,18.03
2018-04-28T02:19:48.064Z,18.03
2018-04-28T02:20:47.924Z,18.06
2018-04-28T02:21:47.957Z,18.03
2018-04-28T02:22:47.954Z,18.04
2018-04-28T02:23:47.663Z,18.06
2018-04-28T02:24:47.654Z,18.05
2018-04-28T02:25:47.712Z,18.03
2018-04-28T02:26:47.716Z,18.04
2018-04-28T02:27:47.892Z,18.06
2018-04-28T02:28:48.252Z,18.05
2018-04-28T02:29:47.976Z,18.06
2018-04-28T02:30:47.583Z,18.04
2018-04-28T02:31:47.936Z,18.04
2018-04-28T02:32:47.571Z,18.04
2018-04-28T02:33:48.246Z,18.04
2018-04-28T02:34:47.798Z,18.03
2018-04-28T02:35:47.827Z,18.06
2018-04-28T02:36:47.696Z,18.04
2018-04-28T02:37:47.932Z,18.04
2018-04-28T02:38:48.138Z,18.03
2018-04-28T02:39:47.772Z,18.05
2018-04-28T02:40:47.477Z,18.03
2018-04-28T02:41:47.737Z,18.04
2018-04-28T02:42:47.539Z,17.99
2018-04-28T02:43:48.304Z,18
2018-04-28T02:44:47.935Z,18.04
2018-04-28T02:45:47.899Z,18.03
2018-04-28T02:46:47.635Z,18.02
2018-04-28T02:47:47.929Z,18.03
2018-04-28T02:48:47.910Z,18.03
2018-04-28T02:49:47.637Z,18.04
2018-04-28T02:50:47.551Z,18.04
2018-04-28T02:51:47.955Z,18.03
2018-04-28T02:52:47.909Z,18.02
2018-04-28T02:53:47.821Z,18.04
2018-04-28T02:54:47.869Z,18.03
2018-04-28T02:55:47.861Z,18.02
2018-04-28T02:56:47.546Z,18.03
2018-04-28T02:57:47.995Z,18.03
2018-04-28T02:58:47.464Z,17.99
2018-04-28T02:59:47.801Z,18.03
2018-04-28T03:00:48.112Z,18.04
2018-04-28T03:01:47.509Z,18.02
2018-04-28T03:02:47.727Z,17.99
2018-04-28T03:03:47.528Z,18.02
2018-04-28T03:04:47.679Z,18.03
2018-04-28T03:05:47.669Z,18.03
2018-04-28T03:06:47.661Z,18.02
2018-04-28T03:07:47.648Z,17.98
2018-04-28T03:08:47.737Z,18.04
2018-04-28T03:09:47.445Z,18.02
2018-04-28T03:10:47.826Z,18.02
2018-04-28T03:11:47.475Z,18
2018-04-28T03:12:47.755Z,18
2018-04-28T03:13:47.520Z,18
2018-04-28T03:14:47.669Z,18.05
2018-04-28T03:15:47.445Z,18
2018-04-28T03:16:47.557Z,18
2018-04-28T03:17:47.424Z,18.03
2018-04-28T03:18:47.552Z,18
2018-04-28T03:19:47.732Z,17.99
2018-04-28T03:20:47.638Z,18.04
2018-04-28T03:21:47.607Z,18
2018-04-28T03:22:47.521Z,18
2018-04-28T03:23:47.670Z,18.03
2018-04-28T03:24:47.568Z,18.02
2018-04-28T03:25:47.706Z,17.99
2018-04-28T03:26:47.772Z,18.02
2018-04-28T03:27:47.545Z,17.99
2018-04-28T03:28:47.536Z,17.99
2018-04-28T03:29:47.506Z,17.99
2018-04-28T03:30:47.458Z,17.99
2018-04-28T03:31:47.650Z,17.99
2018-04-28T03:32:47.513Z,17.99
2018-04-28T03:33:47.598Z,17.99
2018-04-28T03:34:47.523Z,18
2018-04-28T03:35:47.696Z,18
2018-04-28T03:36:47.429Z,18.02
2018-04-28T03:37:47.706Z,17.99
2018-04-28T03:38:47.620Z,18.03
2018-04-28T03:39:47.513Z,17.99
2018-04-28T03:40:47.655Z,17.98
2018-04-28T03:41:47.473Z,18.03
2018-04-28T03:42:47.488Z,17.99
2018-04-28T03:43:47.694Z,17.99
2018-04-28T03:44:47.524Z,17.99
2018-04-28T03:45:47.523Z,18
2018-04-28T03:46:47.686Z,18
2018-04-28T03:47:47.610Z,17.99
2018-04-28T03:48:47.815Z,18
2018-04-28T03:49:47.835Z,17.99
2018-04-28T03:50:47.492Z,18
2018-04-28T03:51:47.690Z,17.99
2018-04-28T03:52:47.533Z,17.99
2018-04-28T03:53:47.640Z,18
2018-04-28T03:54:47.765Z,17.99
2018-04-28T03:55:47.470Z,17.98
2018-04-28T03:56:47.616Z,17.99
2018-04-28T03:57:47.697Z,17.99
2018-04-28T03:58:47.475Z,17.98
2018-04-28T03:59:47.519Z,18
2018-04-28T04:00:47.512Z,17.98
2018-04-28T04:01:47.485Z,17.99
2018-04-28T04:02:47.554Z,17.98
2018-04-28T04:03:47.525Z,17.99
2018-04-28T04:04:47.476Z,17.98
2018-04-28T04:05:47.624Z,17.98
2018-04-28T04:06:47.687Z,17.99
2018-04-28T04:07:47.704Z,17.98
2018-04-28T04:08:47.660Z,17.98
2018-04-28T04:09:47.608Z,18.02
2018-04-28T04:10:47.660Z,17.98
2018-04-28T04:11:47.483Z,17.98
2018-04-28T04:12:47.454Z,17.98
2018-04-28T04:13:47.660Z,17.96
2018-04-28T04:14:47.544Z,17.95
2018-04-28T04:15:47.956Z,17.98
2018-04-28T04:16:47.546Z,17.98
2018-04-28T04:17:47.404Z,17.99
2018-04-28T04:18:47.689Z,17.97
2018-04-28T04:19:47.493Z,17.97
2018-04-28T04:20:47.565Z,17.98
2018-04-28T04:21:47.724Z,17.97
2018-04-28T04:22:47.841Z,17.97
2018-04-28T04:23:47.499Z,17.99
2018-04-28T04:24:47.562Z,17.98
2018-04-28T04:25:47.567Z,17.98
2018-04-28T04:26:47.713Z,17.98
2018-04-28T04:27:47.453Z,17.98
2018-04-28T04:28:47.532Z,17.97
2018-04-28T04:29:47.643Z,17.97
2018-04-28T04:30:47.428Z,17.98
2018-04-28T04:31:47.804Z,17.97
2018-04-28T04:32:47.503Z,17.99
2018-04-28T04:33:47.427Z,17.99
2018-04-28T04:34:47.441Z,17.97
2018-04-28T04:35:47.591Z,17.98
2018-04-28T04:36:47.528Z,17.97
2018-04-28T04:37:48.233Z,17.99
2018-04-28T04:38:47.595Z,17.99
2018-04-28T04:39:47.441Z,17.96
2018-04-28T04:40:47.581Z,17.96
2018-04-28T04:41:47.647Z,17.96
2018-04-28T04:42:47.571Z,17.97
2018-04-28T04:43:47.596Z,17.97
2018-04-28T04:44:47.693Z,17.98
2018-04-28T04:45:47.633Z,17.96
2018-04-28T04:46:47.428Z,17.96
2018-04-28T04:47:47.612Z,17.99
2018-04-28T04:48:47.522Z,17.96
2018-04-28T04:49:47.603Z,17.95
2018-04-28T04:50:47.473Z,17.99
2018-04-28T04:51:47.504Z,17.96
2018-04-28T04:52:47.452Z,17.96
2018-04-28T04:53:47.662Z,17.97
2018-04-28T04:54:47.677Z,17.98
2018-04-28T04:55:47.694Z,17.97
2018-04-28T04:56:47.567Z,17.99
2018-04-28T04:57:47.418Z,17.98
2018-04-28T04:58:47.587Z,17.96
2018-04-28T04:59:47.686Z,17.99
2018-04-28T05:00:47.629Z,17.99
2018-04-28T05:01:47.607Z,17.98
2018-04-28T05:02:47.830Z,17.99
2018-04-28T05:03:47.628Z,17.98
2018-04-28T05:04:47.411Z,17.99
2018-04-28T05:05:47.462Z,18
2018-04-28T05:06:47.538Z,17.98
2018-04-28T05:07:47.521Z,17.97
2018-04-28T05:08:47.566Z,17.99
2018-04-28T05:09:47.532Z,17.97
2018-04-28T05:10:47.617Z,17.97
2018-04-28T05:11:47.325Z,17.99
2018-04-28T05:12:47.502Z,17.98
2018-04-28T05:13:47.600Z,17.98
2018-04-28T05:14:47.606Z,17.98
2018-04-28T05:15:47.580Z,17.99
2018-04-28T05:16:47.573Z,17.98
2018-04-28T05:17:47.510Z,17.98
2018-04-28T05:18:47.610Z,17.97
2018-04-28T05:19:47.390Z,17.97
2018-04-28T05:20:47.568Z,17.98
2018-04-28T05:21:47.388Z,17.98
2018-04-28T05:22:47.675Z,17.98
2018-04-28T05:23:47.487Z,17.97
2018-04-28T05:24:47.745Z,17.98
2018-04-28T05:25:47.460Z,17.97
2018-04-28T05:26:47.556Z,17.99
2018-04-28T05:27:47.522Z,17.98
2018-04-28T05:28:47.566Z,17.97
2018-04-28T05:29:47.586Z,17.98
2018-04-28T05:30:47.356Z,17.98
2018-04-28T05:31:47.437Z,17.98
2018-04-28T05:32:47.997Z,17.99
2018-04-28T05:33:47.522Z,17.98
2018-04-28T05:34:47.592Z,17.98
2018-04-28T05:35:47.641Z,17.99
2018-04-28T05:36:47.631Z,17.99
2018-04-28T05:37:47.551Z,17.97
2018-04-28T05:38:47.578Z,18
2018-04-28T05:39:47.389Z,17.99
2018-04-28T05:40:47.659Z,17.99
2018-04-28T05:41:47.528Z,17.99
2018-04-28T05:42:47.642Z,17.99
2018-04-28T05:43:47.441Z,17.96
2018-04-28T05:44:47.573Z,18
2018-04-28T05:45:47.439Z,17.98
2018-04-28T05:46:47.580Z,17.98
2018-04-28T05:47:47.521Z,17.98
2018-04-28T05:48:47.391Z,17.99
2018-04-28T05:49:47.456Z,17.99
2018-04-28T05:50:47.490Z,17.99
2018-04-28T05:51:47.676Z,18
2018-04-28T05:52:47.430Z,17.99
2018-04-28T05:53:47.532Z,17.98
2018-04-28T05:54:47.483Z,17.98
2018-04-28T05:55:47.510Z,17.99
2018-04-28T05:56:47.681Z,18
2018-04-28T05:57:48.141Z,17.99
2018-04-28T05:58:47.463Z,17.99
2018-04-28T05:59:47.598Z,17.99
2018-04-28T06:00:47.478Z,17.99
2018-04-28T06:01:47.670Z,17.99
2018-04-28T06:02:47.581Z,18.02
2018-04-28T06:03:47.450Z,17.99
2018-04-28T06:04:47.702Z,17.98
2018-04-28T06:05:47.746Z,17.99
2018-04-28T06:06:47.470Z,18.02
2018-04-28T06:07:47.488Z,17.99
2018-04-28T06:08:47.444Z,17.99
2018-04-28T06:09:47.405Z,18
2018-04-28T06:10:47.405Z,18
2018-04-28T06:11:47.540Z,17.99
2018-04-28T06:12:47.459Z,18.02
2018-04-28T06:13:47.465Z,17.97
2018-04-28T06:14:47.572Z,18.02
2018-04-28T06:15:47.532Z,18
2018-04-28T06:16:47.589Z,18
2018-04-28T06:17:47.518Z,18.02
2018-04-28T06:18:47.448Z,17.99
2018-04-28T06:19:47.495Z,17.99
2018-04-28T06:20:47.443Z,18.02
2018-04-28T06:21:47.563Z,18
2018-04-28T06:22:47.442Z,17.99
2018-04-28T06:23:47.586Z,18.04
2018-04-28T06:24:47.718Z,18.02
2018-04-28T06:25:47.408Z,18
2018-04-28T06:26:47.460Z,18.03
2018-04-28T06:27:47.427Z,18.02
2018-04-28T06:28:47.608Z,18.03
2018-04-28T06:29:47.599Z,18.03
2018-04-28T06:30:47.625Z,18
2018-04-28T06:31:47.471Z,18.02
2018-04-28T06:32:47.594Z,18.02
2018-04-28T06:33:47.702Z,18
2018-04-28T06:34:47.561Z,18.03
2018-04-28T06:35:48.041Z,17.99
2018-04-28T06:36:47.651Z,18
2018-04-28T06:37:47.419Z,18
2018-04-28T06:38:47.478Z,18.04
2018-04-28T06:39:47.631Z,18.02
2018-04-28T06:40:47.541Z,18.02
2018-04-28T06:41:47.514Z,18
2018-04-28T06:42:47.606Z,18.04
2018-04-28T06:43:47.581Z,18
2018-04-28T06:44:47.676Z,18.02
2018-04-28T06:45:47.379Z,18.02
2018-04-28T06:46:47.393Z,18.02
2018-04-28T06:47:47.418Z,18.04
2018-04-28T06:48:47.570Z,18.03
2018-04-28T06:49:47.459Z,18
2018-04-28T06:50:47.585Z,17.99
2018-04-28T06:51:47.443Z,18
2018-04-28T06:52:47.569Z,18
2018-04-28T06:53:47.356Z,18.03
2018-04-28T06:54:47.587Z,18.02
2018-04-28T06:55:47.552Z,18.02
2018-04-28T06:56:47.685Z,18.03
2018-04-28T06:57:47.556Z,18.03
2018-04-28T06:58:47.622Z,18.03
2018-04-28T06:59:47.500Z,18.02
2018-04-28T07:00:47.707Z,18.02
2018-04-28T07:01:47.397Z,18
2018-04-28T07:02:47.444Z,18.03
2018-04-28T07:03:47.543Z,18.02
2018-04-28T07:04:47.371Z,18
2018-04-28T07:05:47.399Z,18.04
2018-04-28T07:06:47.339Z,18
2018-04-28T07:07:47.597Z,17.99
2018-04-28T07:08:47.503Z,18.04
2018-04-28T07:09:47.413Z,18
2018-04-28T07:10:48.103Z,18.02
2018-04-28T07:11:47.393Z,18.03
2018-04-28T07:12:47.758Z,18
2018-04-28T07:13:47.472Z,17.99
2018-04-28T07:14:47.693Z,18.03
2018-04-28T07:15:47.603Z,18.03
2018-04-28T07:16:47.552Z,18.03
2018-04-28T07:17:47.390Z,18.02
2018-04-28T07:18:47.504Z,18.02
2018-04-28T07:19:47.374Z,18
2018-04-28T07:20:47.500Z,18.02
2018-04-28T07:21:47.540Z,18.02
2018-04-28T07:22:47.527Z,18
2018-04-28T07:23:47.454Z,18.02
2018-04-28T07:24:47.366Z,18.02
2018-04-28T07:25:47.507Z,18
2018-04-28T07:26:47.645Z,18.02
2018-04-28T07:27:47.465Z,17.99
2018-04-28T07:28:47.508Z,18
2018-04-28T07:29:47.537Z,18.05
2018-04-28T07:30:47.475Z,18.03
2018-04-28T07:31:47.373Z,18.05
2018-04-28T07:32:47.566Z,18.08
2018-04-28T07:33:47.684Z,18.1
2018-04-28T07:34:47.528Z,18.1
2018-04-28T07:35:47.435Z,18.12
2018-04-28T07:36:47.605Z,18.17
2018-04-28T07:37:47.519Z,18.13
2018-04-28T07:38:47.561Z,18.17
2018-04-28T07:39:47.573Z,18.15
2018-04-28T07:40:47.366Z,18.17
2018-04-28T07:41:47.507Z,18.2
2018-04-28T07:42:47.787Z,18.19
2018-04-28T07:43:47.289Z,18.19
2018-04-28T07:44:47.794Z,18.2
2018-04-28T07:45:47.575Z,18.19
2018-04-28T07:46:47.410Z,18.2
2018-04-28T07:47:47.432Z,18.21
2018-04-28T07:48:47.577Z,18.2
2018-04-28T07:49:47.458Z,18.19
2018-04-28T07:50:47.426Z,18.22
2018-04-28T07:51:47.472Z,18.18
2018-04-28T07:52:47.499Z,18.19
2018-04-28T07:53:47.557Z,18.2
2018-04-28T07:54:47.744Z,18.2
2018-04-28T07:55:47.454Z,18.19
2018-04-28T07:56:47.594Z,18.2
2018-04-28T07:57:47.453Z,18.22
2018-04-28T07:58:47.437Z,18.17
2018-04-28T07:59:47.523Z,18.2
2018-04-28T08:00:47.500Z,18.17
2018-04-28T08:01:47.585Z,18.21
2018-04-28T08:02:47.411Z,18.2
2018-04-28T08:03:47.707Z,18.19
2018-04-28T08:04:47.426Z,18.18
2018-04-28T08:05:47.590Z,18.21
2018-04-28T08:06:47.514Z,18.19
2018-04-28T08:07:47.684Z,18.18
2018-04-28T08:08:47.452Z,18.18
2018-04-28T08:09:47.560Z,18.17
2018-04-28T08:10:47.499Z,18.19
2018-04-28T08:11:47.446Z,18.22
2018-04-28T08:12:47.515Z,18.19
2018-04-28T08:13:47.529Z,18.17
2018-04-28T08:14:47.516Z,18.18
2018-04-28T08:15:47.526Z,18.17
2018-04-28T08:16:47.583Z,18.21
2018-04-28T08:17:47.431Z,18.18
2018-04-28T08:18:47.387Z,18.15
2018-04-28T08:19:47.405Z,18.18
2018-04-28T08:20:47.945Z,18.19
2018-04-28T08:21:47.416Z,18.17
2018-04-28T08:22:47.424Z,18.17
2018-04-28T08:23:47.530Z,18.17
2018-04-28T08:24:47.491Z,18.15
2018-04-28T08:25:47.577Z,18.14
2018-04-28T08:26:47.417Z,18.18
2018-04-28T08:27:47.381Z,18.12
2018-04-28T08:28:47.387Z,18.13
2018-04-28T08:29:47.504Z,18.14
2018-04-28T08:30:47.558Z,18.14
2018-04-28T08:31:47.493Z,18.12
2018-04-28T08:32:47.583Z,18.14
2018-04-28T08:33:47.435Z,18.11
2018-04-28T08:34:47.549Z,18.1
2018-04-28T08:35:47.410Z,18.14
2018-04-28T08:36:47.802Z,18.13
2018-04-28T08:37:48.866Z,18.1
2018-04-28T08:38:47.449Z,18.17
2018-04-28T08:39:47.562Z,18.13
2018-04-28T08:40:47.362Z,18.13
2018-04-28T08:41:47.385Z,18.13
2018-04-28T08:42:47.578Z,18.12
2018-04-28T08:43:47.481Z,18.1
2018-04-28T08:44:47.424Z,18.12
2018-04-28T08:45:47.485Z,18.12
2018-04-28T08:46:47.522Z,18.1
2018-04-28T08:47:47.621Z,18.12
2018-04-28T08:48:47.415Z,18.12
2018-04-28T08:49:47.437Z,18.12
2018-04-28T08:50:47.325Z,18.12
2018-04-28T08:51:47.463Z,18.09
2018-04-28T08:52:47.478Z,18.1
2018-04-28T08:53:47.543Z,18.11
2018-04-28T08:54:47.458Z,18.12
2018-04-28T08:55:47.546Z,18.09
2018-04-28T08:56:47.460Z,18.11
2018-04-28T08:57:47.543Z,18.08
2018-04-28T08:58:47.509Z,18.1
2018-04-28T08:59:47.384Z,18.11
2018-04-28T09:00:47.585Z,18.1
2018-04-28T09:01:47.527Z,18.12
2018-04-28T09:02:47.399Z,18.15
2018-04-28T09:03:47.889Z,18.14
2018-04-28T09:04:47.599Z,18.18
2018-04-28T09:05:47.627Z,18.19
2018-04-28T09:06:47.513Z,18.21
2018-04-28T09:07:47.515Z,18.24
2018-04-28T09:08:47.358Z,18.24
2018-04-28T09:09:47.404Z,18.24
2018-04-28T09:10:47.589Z,18.27
2018-04-28T09:11:47.575Z,18.26
2018-04-28T09:12:47.502Z,18.27
2018-04-28T09:13:47.455Z,18.27
2018-04-28T09:14:47.413Z,18.27
2018-04-28T09:15:47.433Z,18.26
2018-04-28T09:16:47.396Z,18.26
2018-04-28T09:17:47.536Z,18.26
2018-04-28T09:18:47.793Z,18.25
2018-04-28T09:19:47.499Z,18.23
2018-04-28T09:20:47.543Z,18.26
2018-04-28T09:21:47.372Z,18.25
2018-04-28T09:22:47.685Z,18.26
2018-04-28T09:23:50.109Z,18.26
2018-04-28T09:24:48.214Z,18.25
2018-04-28T09:25:47.543Z,18.25
2018-04-28T09:26:47.776Z,18.26
2018-04-28T09:27:47.369Z,18.22
2018-04-28T09:28:47.691Z,18.26
2018-04-28T09:29:47.336Z,18.24
2018-04-28T09:30:47.867Z,18.24
2018-04-28T09:31:47.452Z,18.26
2018-04-28T09:32:47.587Z,18.3
2018-04-28T09:33:47.964Z,18.29
2018-04-28T09:34:47.490Z,18.32
2018-04-28T09:35:47.508Z,18.3
2018-04-28T09:36:47.580Z,18.32
2018-04-28T09:37:47.539Z,18.33
2018-04-28T09:38:47.539Z,18.34
2018-04-28T09:39:47.816Z,18.36
2018-04-28T09:40:47.365Z,18.37
2018-04-28T09:41:47.203Z,18.37
2018-04-28T09:42:47.382Z,18.36
2018-04-28T09:43:47.400Z,18.39
2018-04-28T09:44:47.544Z,18.38
2018-04-28T09:45:47.363Z,18.4
2018-04-28T09:46:47.318Z,18.41
2018-04-28T09:47:47.741Z,18.4
2018-04-28T09:48:47.410Z,18.41
2018-04-28T09:49:47.586Z,18.41
2018-04-28T09:50:47.444Z,18.4
2018-04-28T09:51:47.520Z,18.39
2018-04-28T09:52:47.977Z,18.39
2018-04-28T09:53:47.474Z,18.37
2018-04-28T09:54:47.782Z,18.39
2018-04-28T09:55:48.038Z,18.39
2018-04-28T09:56:47.759Z,18.4
2018-04-28T09:57:47.650Z,18.39
2018-04-28T09:58:47.307Z,18.41
2018-04-28T09:59:47.321Z,18.39
2018-04-28T10:00:47.363Z,18.41
2018-04-28T10:01:47.463Z,18.41
2018-04-28T10:02:47.472Z,18.44
2018-04-28T10:03:47.367Z,18.42
2018-04-28T10:04:47.435Z,18.41
2018-04-28T10:05:47.504Z,18.44
2018-04-28T10:06:47.513Z,18.43
2018-04-28T10:07:47.462Z,18.43
2018-04-28T10:08:47.464Z,18.43
2018-04-28T10:09:47.242Z,18.41
2018-04-28T10:10:47.411Z,18.41
2018-04-28T10:11:47.330Z,18.4
2018-04-28T10:12:48.152Z,18.4
2018-04-28T10:13:47.446Z,18.39
2018-04-28T10:14:47.279Z,18.38
2018-04-28T10:15:47.406Z,18.37
2018-04-28T10:16:47.360Z,18.42
2018-04-28T10:17:47.388Z,18.41
2018-04-28T10:18:47.362Z,18.41
2018-04-28T10:19:47.588Z,18.41
2018-04-28T10:20:47.423Z,18.44
2018-04-28T10:21:47.355Z,18.46
2018-04-28T10:22:47.508Z,18.46
2018-04-28T10:23:47.391Z,18.48
2018-04-28T10:24:47.546Z,18.46
2018-04-28T10:25:47.428Z,18.52
2018-04-28T10:26:47.428Z,18.57
2018-04-28T10:27:47.867Z,18.54
2018-04-28T10:28:47.469Z,18.52
2018-04-28T10:29:47.282Z,18.52
2018-04-28T10:30:47.616Z,18.51
2018-04-28T10:31:47.500Z,18.51
2018-04-28T10:32:47.481Z,18.52
2018-04-28T10:33:47.481Z,18.51
2018-04-28T10:34:47.604Z,18.49
2018-04-28T10:35:47.385Z,18.48
2018-04-28T10:36:47.463Z,18.48
2018-04-28T10:37:47.469Z,18.48
2018-04-28T10:38:47.643Z,18.47
2018-04-28T10:39:47.507Z,18.47
2018-04-28T10:40:47.344Z,18.48
2018-04-28T10:41:47.619Z,18.44
2018-04-28T10:42:47.420Z,18.42
2018-04-28T10:43:47.473Z,18.44
2018-04-28T10:44:47.502Z,18.43
2018-04-28T10:45:47.417Z,18.41
2018-04-28T10:46:47.342Z,18.41
2018-04-28T10:47:47.428Z,18.44
2018-04-28T10:48:47.410Z,18.42
2018-04-28T10:49:47.508Z,18.43
2018-04-28T10:50:47.572Z,18.41
2018-04-28T10:51:47.377Z,18.42
2018-04-28T10:52:47.260Z,18.42
2018-04-28T10:53:47.746Z,18.41
2018-04-28T10:54:47.791Z,18.4
2018-04-28T10:55:47.484Z,18.39
2018-04-28T10:56:47.422Z,18.39
2018-04-28T10:57:47.402Z,18.41
2018-04-28T10:58:47.526Z,18.37
2018-04-28T10:59:47.483Z,18.39
2018-04-28T11:00:47.772Z,18.37
2018-04-28T11:01:47.892Z,18.38
2018-04-28T11:02:47.417Z,18.37
2018-04-28T11:03:47.382Z,18.38
2018-04-28T11:04:47.762Z,18.39
2018-04-28T11:05:47.272Z,18.38
2018-04-28T11:06:47.500Z,18.37
2018-04-28T11:07:47.410Z,18.35
2018-04-28T11:08:47.375Z,18.37
2018-04-28T11:09:47.494Z,18.34
2018-04-28T11:10:47.502Z,18.33
2018-04-28T11:11:47.290Z,18.35
2018-04-28T11:12:47.443Z,18.34
2018-04-28T11:13:47.532Z,18.33
2018-04-28T11:14:47.469Z,18.37
2018-04-28T11:15:47.431Z,18.35
2018-04-28T11:16:47.412Z,18.37
2018-04-28T11:17:47.351Z,18.39
2018-04-28T11:18:47.568Z,18.41
2018-04-28T11:19:47.724Z,18.4
2018-04-28T11:20:47.525Z,18.39
2018-04-28T11:21:47.355Z,18.42
2018-04-28T11:22:47.682Z,18.44
2018-04-28T11:23:47.451Z,18.46
2018-04-28T11:24:47.673Z,18.43
2018-04-28T11:25:47.766Z,18.47
2018-04-28T11:26:47.328Z,18.46
2018-04-28T11:27:47.405Z,18.43
2018-04-28T11:28:47.406Z,18.47
2018-04-28T11:29:47.630Z,18.48
2018-04-28T11:30:47.465Z,18.46
2018-04-28T11:31:47.389Z,18.44
2018-04-28T11:32:47.578Z,18.46
2018-04-28T11:33:47.495Z,18.44
2018-04-28T11:34:47.468Z,18.42
2018-04-28T11:35:47.401Z,18.42
2018-04-28T11:36:47.398Z,18.41
2018-04-28T11:37:47.330Z,18.42
2018-04-28T11:38:47.376Z,18.4
2018-04-28T11:39:47.551Z,18.4
2018-04-28T11:40:47.449Z,18.41
2018-04-28T11:41:47.355Z,18.41
2018-04-28T11:42:47.480Z,18.4
2018-04-28T11:43:47.477Z,18.41
2018-04-28T11:44:47.407Z,18.4
2018-04-28T11:45:47.638Z,18.41
2018-04-28T11:46:47.438Z,18.4
2018-04-28T11:47:47.737Z,18.4
2018-04-28T11:48:47.326Z,18.4
2018-04-28T11:49:47.259Z,18.38
2018-04-28T11:50:47.478Z,18.39
2018-04-28T11:51:47.497Z,18.38
2018-04-28T11:52:47.446Z,18.38
2018-04-28T11:53:47.469Z,18.38
2018-04-28T11:54:47.485Z,18.37
2018-04-28T11:55:47.363Z,18.37
2018-04-28T11:56:47.524Z,18.4
2018-04-28T11:57:47.418Z,18.36
2018-04-28T11:58:47.383Z,18.38
2018-04-28T11:59:47.382Z,18.38
2018-04-28T12:00:47.562Z,18.38
2018-04-28T12:01:47.325Z,18.34
2018-04-28T12:02:47.460Z,18.35
2018-04-28T12:03:47.353Z,18.35
2018-04-28T12:04:47.460Z,18.36
2018-04-28T12:05:47.821Z,18.36
2018-04-28T12:06:47.560Z,18.32
2018-04-28T12:07:47.455Z,18.34
2018-04-28T12:08:47.250Z,18.3
2018-04-28T12:09:47.447Z,18.34
2018-04-28T12:10:47.472Z,18.32
2018-04-28T12:11:47.372Z,18.3
2018-04-28T12:12:47.449Z,18.3
2018-04-28T12:13:47.506Z,18.29
2018-04-28T12:14:47.468Z,18.32
2018-04-28T12:15:47.409Z,18.3
2018-04-28T12:16:47.636Z,18.33
2018-04-28T12:17:47.875Z,18.28
2018-04-28T12:18:47.535Z,18.3
2018-04-28T12:19:47.317Z,18.29
2018-04-28T12:20:47.303Z,18.28
2018-04-28T12:21:47.339Z,18.29
2018-04-28T12:22:47.408Z,18.28
2018-04-28T12:23:47.517Z,18.28
2018-04-28T12:24:47.464Z,18.26
2018-04-28T12:25:47.506Z,18.25
2018-04-28T12:26:47.434Z,18.26
2018-04-28T12:27:47.233Z,18.26
2018-04-28T12:28:47.279Z,18.26
2018-04-28T12:29:47.902Z,18.27
2018-04-28T12:30:47.384Z,18.27
2018-04-28T12:31:47.318Z,18.25
2018-04-28T12:32:47.405Z,18.26
2018-04-28T12:33:47.309Z,18.26
2018-04-28T12:34:47.729Z,18.25
2018-04-28T12:35:47.409Z,18.24
2018-04-28T12:36:47.451Z,18.25
2018-04-28T12:37:47.344Z,18.25
2018-04-28T12:38:47.401Z,18.24
2018-04-28T12:39:47.513Z,18.25
2018-04-28T12:40:47.543Z,18.25
2018-04-28T12:41:47.455Z,18.25
2018-04-28T12:42:47.342Z,18.24
2018-04-28T12:43:47.502Z,18.24
2018-04-28T12:44:47.632Z,18.23
2018-04-28T12:45:47.278Z,18.25
2018-04-28T12:46:47.326Z,18.24
2018-04-28T12:47:47.299Z,18.25
2018-04-28T12:48:47.469Z,18.23
2018-04-28T12:49:47.423Z,18.25
2018-04-28T12:50:47.805Z,18.23
2018-04-28T12:51:47.440Z,18.23
2018-04-28T12:52:47.467Z,18.22
2018-04-28T12:53:47.402Z,18.24
2018-04-28T12:54:47.345Z,18.22
2018-04-28T12:55:47.415Z,18.22
2018-04-28T12:56:47.329Z,18.24
2018-04-28T12:57:47.573Z,18.23
2018-04-28T12:58:47.564Z,18.22